Terminal Aerodrome Forecast
Issued by NWS

Home | Current Version | Previous Version | Text Only | Print | Product List | Glossary On
Versions: 1 2 3 4 5 6 7 8 9 10 11 12 13 14 15 16 17 18 19 20 21 22 23 24 25 26 27 28
000
FTAK31 PAFA 081738
TAFAGA
TAF
PAGA 081738Z 0818/0918 VRB03KT P6SM VCFG SKC=

USA.gov is the U.S. government's official web portal to all federal, state and local government web resources and services.